sensor_id;sensor_type;location;lat;lon;timestamp;P1;durP1;ratioP1;P2;durP2;ratioP2
25023;SDS011;13033;50.936;5.334;2023-09-19T00:00:43;9.52;;;2.50;;
25023;SDS011;13033;50.936;5.334;2023-09-19T00:03:11;12.82;;;3.00;;
25023;SDS011;13033;50.936;5.334;2023-09-19T00:05:38;8.60;;;2.50;;
25023;SDS011;13033;50.936;5.334;2023-09-19T00:08:04;15.15;;;3.05;;
25023;SDS011;13033;50.936;5.334;2023-09-19T00:10:31;12.13;;;2.80;;
25023;SDS011;13033;50.936;5.334;2023-09-19T00:13:00;16.40;;;2.80;;
25023;SDS011;13033;50.936;5.334;2023-09-19T00:15:30;14.63;;;3.10;;
25023;SDS011;13033;50.936;5.334;2023-09-19T00:18:00;16.42;;;2.80;;
25023;SDS011;13033;50.936;5.334;2023-09-19T00:20:26;14.05;;;2.88;;
25023;SDS011;13033;50.936;5.334;2023-09-19T00:22:51;13.25;;;2.67;;
25023;SDS011;13033;50.936;5.334;2023-09-19T00:25:18;7.93;;;2.90;;
25023;SDS011;13033;50.936;5.334;2023-09-19T00:27:44;11.02;;;2.67;;
25023;SDS011;13033;50.936;5.334;2023-09-19T00:30:10;14.27;;;3.17;;
25023;SDS011;13033;50.936;5.334;2023-09-19T00:32:44;9.15;;;2.53;;
25023;SDS011;13033;50.936;5.334;2023-09-19T00:35:12;12.30;;;3.00;;
25023;SDS011;13033;50.936;5.334;2023-09-19T00:37:40;8.48;;;2.20;;
25023;SDS011;13033;50.936;5.334;2023-09-19T00:40:07;11.02;;;2.78;;
25023;SDS011;13033;50.936;5.334;2023-09-19T00:42:46;12.73;;;2.60;;
25023;SDS011;13033;50.936;5.334;2023-09-19T00:45:13;11.07;;;2.40;;
25023;SDS011;13033;50.936;5.334;2023-09-19T00:47:49;12.57;;;2.30;;
25023;SDS011;13033;50.936;5.334;2023-09-19T00:50:17;18.27;;;3.00;;
25023;SDS011;13033;50.936;5.334;2023-09-19T00:52:44;14.55;;;2.85;;
25023;SDS011;13033;50.936;5.334;2023-09-19T00:55:13;13.25;;;2.55;;
25023;SDS011;13033;50.936;5.334;2023-09-19T00:57:41;8.63;;;2.40;;
25023;SDS011;13033;50.936;5.334;2023-09-19T01:00:07;12.15;;;2.53;;
25023;SDS011;13033;50.936;5.334;2023-09-19T01:02:41;17.25;;;3.08;;
25023;SDS011;13033;50.936;5.334;2023-09-19T01:05:11;11.75;;;2.60;;
25023;SDS011;13033;50.936;5.334;2023-09-19T01:07:37;10.10;;;2.65;;
25023;SDS011;13033;50.936;5.334;2023-09-19T01:10:07;13.68;;;2.72;;
25023;SDS011;13033;50.936;5.334;2023-09-19T01:18:16;9.82;;;2.20;;
25023;SDS011;13033;50.936;5.334;2023-09-19T01:26:49;12.82;;;2.55;;
25023;SDS011;13033;50.936;5.334;2023-09-19T01:29:37;10.13;;;2.40;;
25023;SDS011;13033;50.936;5.334;2023-09-19T01:32:05;7.30;;;1.92;;
25023;SDS011;13033;50.936;5.334;2023-09-19T01:34:47;15.48;;;2.72;;
25023;SDS011;13033;50.936;5.334;2023-09-19T01:37:13;16.30;;;2.95;;
25023;SDS011;13033;50.936;5.334;2023-09-19T01:39:47;12.88;;;2.85;;
25023;SDS011;13033;50.936;5.334;2023-09-19T01:42:58;13.93;;;2.58;;
25023;SDS011;13033;50.936;5.334;2023-09-19T01:45:13;10.85;;;2.67;;
25023;SDS011;13033;50.936;5.334;2023-09-19T01:48:10;12.48;;;2.78;;
25023;SDS011;13033;50.936;5.334;2023-09-19T01:51:00;11.98;;;3.25;;
25023;SDS011;13033;50.936;5.334;2023-09-19T01:53:28;12.40;;;2.72;;
25023;SDS011;13033;50.936;5.334;2023-09-19T01:56:00;11.90;;;2.60;;
25023;SDS011;13033;50.936;5.334;2023-09-19T01:58:33;14.30;;;3.08;;
25023;SDS011;13033;50.936;5.334;2023-09-19T02:01:02;15.25;;;3.20;;
25023;SDS011;13033;50.936;5.334;2023-09-19T02:03:31;14.38;;;3.20;;
25023;SDS011;13033;50.936;5.334;2023-09-19T02:05:59;15.60;;;2.80;;
25023;SDS011;13033;50.936;5.334;2023-09-19T02:08:25;12.48;;;2.92;;
25023;SDS011;13033;50.936;5.334;2023-09-19T02:10:51;9.00;;;2.80;;
25023;SDS011;13033;50.936;5.334;2023-09-19T02:13:18;11.93;;;2.72;;
25023;SDS011;13033;50.936;5.334;2023-09-19T02:15:45;14.95;;;2.90;;
25023;SDS011;13033;50.936;5.334;2023-09-19T02:18:11;12.13;;;2.92;;
25023;SDS011;13033;50.936;5.334;2023-09-19T02:20:40;9.45;;;2.92;;
25023;SDS011;13033;50.936;5.334;2023-09-19T02:23:06;17.10;;;3.15;;
25023;SDS011;13033;50.936;5.334;2023-09-19T02:25:33;13.82;;;2.72;;
25023;SDS011;13033;50.936;5.334;2023-09-19T02:28:00;14.63;;;3.22;;
25023;SDS011;13033;50.936;5.334;2023-09-19T02:30:28;13.32;;;3.22;;
25023;SDS011;13033;50.936;5.334;2023-09-19T02:32:54;14.70;;;2.75;;
25023;SDS011;13033;50.936;5.334;2023-09-19T02:35:19;12.85;;;2.97;;
25023;SDS011;13033;50.936;5.334;2023-09-19T02:37:46;13.18;;;2.50;;
25023;SDS011;13033;50.936;5.334;2023-09-19T02:40:12;11.18;;;2.50;;
25023;SDS011;13033;50.936;5.334;2023-09-19T02:42:47;11.93;;;2.78;;
25023;SDS011;13033;50.936;5.334;2023-09-19T02:45:15;13.77;;;3.30;;
25023;SDS011;13033;50.936;5.334;2023-09-19T02:47:42;14.13;;;2.75;;
25023;SDS011;13033;50.936;5.334;2023-09-19T02:50:09;12.30;;;3.20;;
25023;SDS011;13033;50.936;5.334;2023-09-19T02:52:38;13.18;;;3.10;;
25023;SDS011;13033;50.936;5.334;2023-09-19T02:55:13;13.95;;;3.28;;
25023;SDS011;13033;50.936;5.334;2023-09-19T02:57:45;17.10;;;3.15;;
25023;SDS011;13033;50.936;5.334;2023-09-19T03:00:15;14.60;;;2.47;;
25023;SDS011;13033;50.936;5.334;2023-09-19T03:02:41;13.82;;;3.20;;
25023;SDS011;13033;50.936;5.334;2023-09-19T03:05:08;15.18;;;2.88;;
25023;SDS011;13033;50.936;5.334;2023-09-19T03:07:36;12.02;;;2.40;;
25023;SDS011;13033;50.936;5.334;2023-09-19T03:10:03;11.13;;;2.25;;
25023;SDS011;13033;50.936;5.334;2023-09-19T03:12:32;15.85;;;3.45;;
25023;SDS011;13033;50.936;5.334;2023-09-19T03:14:59;8.52;;;2.42;;
25023;SDS011;13033;50.936;5.334;2023-09-19T03:17:24;13.57;;;2.63;;
25023;SDS011;13033;50.936;5.334;2023-09-19T03:19:50;13.18;;;3.08;;
25023;SDS011;13033;50.936;5.334;2023-09-19T03:22:16;18.20;;;3.05;;
25023;SDS011;13033;50.936;5.334;2023-09-19T03:24:43;13.98;;;3.47;;
25023;SDS011;13033;50.936;5.334;2023-09-19T03:27:09;17.85;;;3.20;;
25023;SDS011;13033;50.936;5.334;2023-09-19T03:29:35;13.20;;;3.50;;
25023;SDS011;13033;50.936;5.334;2023-09-19T03:32:01;10.40;;;2.60;;
25023;SDS011;13033;50.936;5.334;2023-09-19T03:34:28;14.25;;;2.75;;
25023;SDS011;13033;50.936;5.334;2023-09-19T03:36:54;11.88;;;2.83;;
25023;SDS011;13033;50.936;5.334;2023-09-19T03:39:20;11.95;;;2.42;;
25023;SDS011;13033;50.936;5.334;2023-09-19T03:41:46;13.57;;;3.17;;
25023;SDS011;13033;50.936;5.334;2023-09-19T03:44:12;13.48;;;3.28;;
25023;SDS011;13033;50.936;5.334;2023-09-19T03:46:37;12.85;;;2.95;;
25023;SDS011;13033;50.936;5.334;2023-09-19T03:49:03;13.75;;;2.50;;
25023;SDS011;13033;50.936;5.334;2023-09-19T03:51:29;9.90;;;3.25;;
25023;SDS011;13033;50.936;5.334;2023-09-19T03:53:55;15.93;;;3.03;;
25023;SDS011;13033;50.936;5.334;2023-09-19T03:56:21;15.45;;;3.10;;
25023;SDS011;13033;50.936;5.334;2023-09-19T03:58:47;14.20;;;2.70;;
25023;SDS011;13033;50.936;5.334;2023-09-19T04:01:12;16.98;;;3.40;;
25023;SDS011;13033;50.936;5.334;2023-09-19T04:03:38;11.90;;;2.60;;
25023;SDS011;13033;50.936;5.334;2023-09-19T04:06:12;15.77;;;3.10;;
25023;SDS011;13033;50.936;5.334;2023-09-19T04:08:41;17.25;;;2.88;;
25023;SDS011;13033;50.936;5.334;2023-09-19T04:11:07;12.05;;;2.70;;
25023;SDS011;13033;50.936;5.334;2023-09-19T04:13:33;10.63;;;2.85;;
25023;SDS011;13033;50.936;5.334;2023-09-19T04:15:59;18.45;;;2.97;;
25023;SDS011;13033;50.936;5.334;2023-09-19T04:18:25;13.95;;;3.15;;
25023;SDS011;13033;50.936;5.334;2023-09-19T04:20:51;11.57;;;3.00;;
25023;SDS011;13033;50.936;5.334;2023-09-19T04:23:17;14.27;;;2.75;;
25023;SDS011;13033;50.936;5.334;2023-09-19T04:25:46;11.30;;;2.60;;
25023;SDS011;13033;50.936;5.334;2023-09-19T04:28:13;11.60;;;2.42;;
25023;SDS011;13033;50.936;5.334;2023-09-19T04:30:39;13.43;;;3.03;;
25023;SDS011;13033;50.936;5.334;2023-09-19T04:33:07;14.93;;;2.88;;
25023;SDS011;13033;50.936;5.334;2023-09-19T04:35:33;12.15;;;3.10;;
25023;SDS011;13033;50.936;5.334;2023-09-19T04:38:00;13.98;;;2.97;;
25023;SDS011;13033;50.936;5.334;2023-09-19T04:40:26;15.32;;;2.45;;
25023;SDS011;13033;50.936;5.334;2023-09-19T04:42:55;18.02;;;3.40;;
25023;SDS011;13033;50.936;5.334;2023-09-19T04:45:24;15.02;;;2.47;;
25023;SDS011;13033;50.936;5.334;2023-09-19T04:47:51;13.23;;;3.25;;
25023;SDS011;13033;50.936;5.334;2023-09-19T04:50:18;16.50;;;3.00;;
25023;SDS011;13033;50.936;5.334;2023-09-19T04:52:44;9.68;;;2.92;;
25023;SDS011;13033;50.936;5.334;2023-09-19T04:55:13;11.77;;;2.67;;
25023;SDS011;13033;50.936;5.334;2023-09-19T04:57:49;14.73;;;2.92;;
25023;SDS011;13033;50.936;5.334;2023-09-19T05:00:16;18.73;;;3.13;;
25023;SDS011;13033;50.936;5.334;2023-09-19T05:02:44;12.43;;;2.58;;
25023;SDS011;13033;50.936;5.334;2023-09-19T05:05:10;13.38;;;3.03;;
25023;SDS011;13033;50.936;5.334;2023-09-19T05:07:37;11.75;;;2.33;;
25023;SDS011;13033;50.936;5.334;2023-09-19T05:10:04;13.38;;;3.25;;
25023;SDS011;13033;50.936;5.334;2023-09-19T05:12:34;12.60;;;2.83;;
25023;SDS011;13033;50.936;5.334;2023-09-19T05:15:01;12.45;;;2.88;;
25023;SDS011;13033;50.936;5.334;2023-09-19T05:17:31;14.68;;;3.05;;
25023;SDS011;13033;50.936;5.334;2023-09-19T05:19:58;13.55;;;3.03;;
25023;SDS011;13033;50.936;5.334;2023-09-19T05:22:26;18.45;;;2.97;;
25023;SDS011;13033;50.936;5.334;2023-09-19T05:24:52;13.32;;;2.45;;
25023;SDS011;13033;50.936;5.334;2023-09-19T05:27:18;14.25;;;2.80;;
25023;SDS011;13033;50.936;5.334;2023-09-19T05:29:46;14.70;;;2.67;;
25023;SDS011;13033;50.936;5.334;2023-09-19T05:32:12;8.77;;;2.70;;
25023;SDS011;13033;50.936;5.334;2023-09-19T05:34:38;11.52;;;2.40;;
25023;SDS011;13033;50.936;5.334;2023-09-19T05:37:04;12.35;;;3.05;;
25023;SDS011;13033;50.936;5.334;2023-09-19T05:39:32;13.27;;;2.72;;
25023;SDS011;13033;50.936;5.334;2023-09-19T05:41:58;13.50;;;2.78;;
25023;SDS011;13033;50.936;5.334;2023-09-19T05:44:25;16.58;;;2.72;;
25023;SDS011;13033;50.936;5.334;2023-09-19T05:46:51;16.73;;;2.72;;
25023;SDS011;13033;50.936;5.334;2023-09-19T05:49:17;12.30;;;2.60;;
25023;SDS011;13033;50.936;5.334;2023-09-19T05:51:43;12.73;;;2.50;;
25023;SDS011;13033;50.936;5.334;2023-09-19T05:54:09;12.70;;;2.60;;
25023;SDS011;13033;50.936;5.334;2023-09-19T05:56:36;14.20;;;3.10;;
25023;SDS011;13033;50.936;5.334;2023-09-19T05:59:02;10.88;;;2.53;;
25023;SDS011;13033;50.936;5.334;2023-09-19T06:01:29;14.52;;;2.92;;
25023;SDS011;13033;50.936;5.334;2023-09-19T06:03:57;13.98;;;3.25;;
25023;SDS011;13033;50.936;5.334;2023-09-19T06:06:25;11.77;;;3.17;;
25023;SDS011;13033;50.936;5.334;2023-09-19T06:08:52;15.70;;;3.25;;
25023;SDS011;13033;50.936;5.334;2023-09-19T06:11:18;13.57;;;3.67;;
25023;SDS011;13033;50.936;5.334;2023-09-19T06:13:45;18.95;;;3.60;;
25023;SDS011;13033;50.936;5.334;2023-09-19T06:16:12;17.73;;;3.45;;
25023;SDS011;13033;50.936;5.334;2023-09-19T06:18:38;10.70;;;3.42;;
25023;SDS011;13033;50.936;5.334;2023-09-19T06:21:04;19.88;;;3.42;;
25023;SDS011;13033;50.936;5.334;2023-09-19T06:23:32;15.23;;;3.38;;
25023;SDS011;13033;50.936;5.334;2023-09-19T06:25:59;20.45;;;3.38;;
25023;SDS011;13033;50.936;5.334;2023-09-19T06:28:25;18.48;;;3.28;;
25023;SDS011;13033;50.936;5.334;2023-09-19T06:30:53;14.30;;;3.17;;
25023;SDS011;13033;50.936;5.334;2023-09-19T06:33:20;12.10;;;3.08;;
25023;SDS011;13033;50.936;5.334;2023-09-19T06:35:46;13.60;;;2.95;;
25023;SDS011;13033;50.936;5.334;2023-09-19T06:38:13;18.65;;;3.15;;
25023;SDS011;13033;50.936;5.334;2023-09-19T06:40:40;10.02;;;2.40;;
25023;SDS011;13033;50.936;5.334;2023-09-19T06:43:10;12.77;;;2.90;;
25023;SDS011;13033;50.936;5.334;2023-09-19T06:45:36;8.63;;;2.45;;
25023;SDS011;13033;50.936;5.334;2023-09-19T06:48:01;12.93;;;3.28;;
25023;SDS011;13033;50.936;5.334;2023-09-19T06:50:28;14.30;;;3.17;;
25023;SDS011;13033;50.936;5.334;2023-09-19T06:52:58;10.00;;;2.97;;
25023;SDS011;13033;50.936;5.334;2023-09-19T06:55:25;18.00;;;2.97;;
25023;SDS011;13033;50.936;5.334;2023-09-19T06:57:56;13.50;;;2.58;;
25023;SDS011;13033;50.936;5.334;2023-09-19T07:00:23;16.83;;;3.13;;
25023;SDS011;13033;50.936;5.334;2023-09-19T07:02:55;12.55;;;3.05;;
25023;SDS011;13033;50.936;5.334;2023-09-19T07:05:22;17.85;;;2.83;;
25023;SDS011;13033;50.936;5.334;2023-09-19T07:07:48;13.82;;;2.50;;
25023;SDS011;13033;50.936;5.334;2023-09-19T07:10:14;12.35;;;2.50;;
25023;SDS011;13033;50.936;5.334;2023-09-19T07:12:40;14.38;;;2.78;;
25023;SDS011;13033;50.936;5.334;2023-09-19T07:15:08;14.45;;;2.83;;
25023;SDS011;13033;50.936;5.334;2023-09-19T07:17:34;12.02;;;2.83;;
25023;SDS011;13033;50.936;5.334;2023-09-19T07:20:00;7.47;;;2.42;;
25023;SDS011;13033;50.936;5.334;2023-09-19T07:22:26;13.00;;;2.35;;
25023;SDS011;13033;50.936;5.334;2023-09-19T07:24:52;9.15;;;2.10;;
25023;SDS011;13033;50.936;5.334;2023-09-19T07:27:17;12.52;;;2.30;;
25023;SDS011;13033;50.936;5.334;2023-09-19T07:29:43;12.35;;;2.85;;
25023;SDS011;13033;50.936;5.334;2023-09-19T07:32:09;12.88;;;2.65;;
25023;SDS011;13033;50.936;5.334;2023-09-19T07:34:36;11.00;;;2.42;;
25023;SDS011;13033;50.936;5.334;2023-09-19T07:37:05;16.50;;;2.88;;
25023;SDS011;13033;50.936;5.334;2023-09-19T07:39:31;8.82;;;2.70;;
25023;SDS011;13033;50.936;5.334;2023-09-19T07:41:57;10.43;;;2.42;;
25023;SDS011;13033;50.936;5.334;2023-09-19T07:44:23;10.77;;;2.60;;
25023;SDS011;13033;50.936;5.334;2023-09-19T07:46:50;10.38;;;2.75;;
25023;SDS011;13033;50.936;5.334;2023-09-19T07:49:17;12.15;;;2.72;;
25023;SDS011;13033;50.936;5.334;2023-09-19T07:51:43;12.82;;;2.92;;
25023;SDS011;13033;50.936;5.334;2023-09-19T07:54:11;12.65;;;2.50;;
25023;SDS011;13033;50.936;5.334;2023-09-19T07:56:37;12.35;;;2.42;;
25023;SDS011;13033;50.936;5.334;2023-09-19T07:59:03;9.88;;;2.50;;
25023;SDS011;13033;50.936;5.334;2023-09-19T08:01:29;12.50;;;2.72;;
25023;SDS011;13033;50.936;5.334;2023-09-19T08:03:55;13.63;;;2.65;;
25023;SDS011;13033;50.936;5.334;2023-09-19T08:06:21;15.00;;;2.97;;
25023;SDS011;13033;50.936;5.334;2023-09-19T08:08:46;12.52;;;2.78;;
25023;SDS011;13033;50.936;5.334;2023-09-19T08:11:15;13.20;;;2.53;;
25023;SDS011;13033;50.936;5.334;2023-09-19T08:13:46;15.70;;;2.30;;
25023;SDS011;13033;50.936;5.334;2023-09-19T08:16:14;10.10;;;2.15;;
25023;SDS011;13033;50.936;5.334;2023-09-19T08:18:40;6.72;;;2.17;;
25023;SDS011;13033;50.936;5.334;2023-09-19T08:21:06;14.60;;;2.75;;
25023;SDS011;13033;50.936;5.334;2023-09-19T08:23:35;9.55;;;2.40;;
25023;SDS011;13033;50.936;5.334;2023-09-19T08:26:01;9.45;;;2.30;;
25023;SDS011;13033;50.936;5.334;2023-09-19T08:28:32;13.40;;;2.78;;
25023;SDS011;13033;50.936;5.334;2023-09-19T08:31:04;10.23;;;2.20;;
25023;SDS011;13033;50.936;5.334;2023-09-19T08:33:31;13.02;;;2.92;;
25023;SDS011;13033;50.936;5.334;2023-09-19T08:36:01;7.57;;;2.38;;
25023;SDS011;13033;50.936;5.334;2023-09-19T08:38:30;14.43;;;2.90;;
25023;SDS011;13033;50.936;5.334;2023-09-19T08:40:58;9.85;;;2.35;;
25023;SDS011;13033;50.936;5.334;2023-09-19T08:43:25;14.50;;;2.42;;
25023;SDS011;13033;50.936;5.334;2023-09-19T08:45:53;9.15;;;2.28;;
25023;SDS011;13033;50.936;5.334;2023-09-19T08:48:29;10.50;;;2.38;;
25023;SDS011;13033;50.936;5.334;2023-09-19T08:50:56;12.77;;;2.33;;
25023;SDS011;13033;50.936;5.334;2023-09-19T08:56:08;9.50;;;2.42;;
25023;SDS011;13033;50.936;5.334;2023-09-19T08:58:39;7.70;;;2.28;;
25023;SDS011;13033;50.936;5.334;2023-09-19T09:01:12;7.75;;;2.40;;
25023;SDS011;13033;50.936;5.334;2023-09-19T09:03:40;11.63;;;2.28;;
25023;SDS011;13033;50.936;5.334;2023-09-19T09:06:13;13.50;;;2.38;;
25023;SDS011;13033;50.936;5.334;2023-09-19T09:08:41;11.52;;;2.42;;
25023;SDS011;13033;50.936;5.334;2023-09-19T09:11:08;10.48;;;2.50;;
25023;SDS011;13033;50.936;5.334;2023-09-19T09:13:35;15.13;;;2.97;;
25023;SDS011;13033;50.936;5.334;2023-09-19T09:16:02;12.25;;;2.90;;
25023;SDS011;13033;50.936;5.334;2023-09-19T09:18:28;15.57;;;2.75;;
25023;SDS011;13033;50.936;5.334;2023-09-19T09:20:57;10.30;;;2.50;;
25023;SDS011;13033;50.936;5.334;2023-09-19T09:23:22;12.25;;;2.63;;
25023;SDS011;13033;50.936;5.334;2023-09-19T09:25:51;11.57;;;2.85;;
25023;SDS011;13033;50.936;5.334;2023-09-19T09:28:25;8.07;;;2.17;;
25023;SDS011;13033;50.936;5.334;2023-09-19T09:30:53;12.50;;;2.78;;
25023;SDS011;13033;50.936;5.334;2023-09-19T09:33:19;10.68;;;2.75;;
25023;SDS011;13033;50.936;5.334;2023-09-19T09:35:56;11.05;;;3.30;;
25023;SDS011;13033;50.936;5.334;2023-09-19T09:38:46;11.88;;;3.22;;
25023;SDS011;13033;50.936;5.334;2023-09-19T09:41:13;11.05;;;2.72;;
25023;SDS011;13033;50.936;5.334;2023-09-19T09:43:52;10.77;;;2.83;;
25023;SDS011;13033;50.936;5.334;2023-09-19T09:46:20;13.05;;;3.20;;
25023;SDS011;13033;50.936;5.334;2023-09-19T09:49:07;11.60;;;2.80;;
25023;SDS011;13033;50.936;5.334;2023-09-19T09:52:04;13.13;;;3.50;;
25023;SDS011;13033;50.936;5.334;2023-09-19T09:54:57;12.65;;;3.10;;
25023;SDS011;13033;50.936;5.334;2023-09-19T09:57:30;18.60;;;4.28;;
25023;SDS011;13033;50.936;5.334;2023-09-19T09:59:56;11.52;;;3.50;;
25023;SDS011;13033;50.936;5.334;2023-09-19T10:02:28;6.53;;;2.42;;
25023;SDS011;13033;50.936;5.334;2023-09-19T10:04:57;11.80;;;2.90;;
25023;SDS011;13033;50.936;5.334;2023-09-19T10:07:32;8.93;;;2.90;;
25023;SDS011;13033;50.936;5.334;2023-09-19T10:10:01;7.43;;;2.42;;
25023;SDS011;13033;50.936;5.334;2023-09-19T10:12:48;12.32;;;2.78;;
25023;SDS011;13033;50.936;5.334;2023-09-19T10:15:17;11.10;;;2.70;;
25023;SDS011;13033;50.936;5.334;2023-09-19T10:17:46;10.32;;;2.63;;
25023;SDS011;13033;50.936;5.334;2023-09-19T10:20:14;13.70;;;2.63;;
25023;SDS011;13033;50.936;5.334;2023-09-19T10:23:09;10.90;;;2.67;;
25023;SDS011;13033;50.936;5.334;2023-09-19T10:25:38;11.65;;;2.25;;
25023;SDS011;13033;50.936;5.334;2023-09-19T10:28:09;11.65;;;2.47;;
25023;SDS011;13033;50.936;5.334;2023-09-19T10:30:37;13.50;;;2.75;;
25023;SDS011;13033;50.936;5.334;2023-09-19T10:33:09;15.35;;;2.60;;
25023;SDS011;13033;50.936;5.334;2023-09-19T10:35:40;9.95;;;2.45;;
25023;SDS011;13033;50.936;5.334;2023-09-19T10:38:09;10.55;;;2.17;;
25023;SDS011;13033;50.936;5.334;2023-09-19T10:40:37;12.95;;;2.60;;
25023;SDS011;13033;50.936;5.334;2023-09-19T10:43:11;8.85;;;1.80;;
25023;SDS011;13033;50.936;5.334;2023-09-19T10:45:47;7.13;;;1.83;;
25023;SDS011;13033;50.936;5.334;2023-09-19T10:48:17;11.43;;;2.97;;
25023;SDS011;13033;50.936;5.334;2023-09-19T10:53:20;7.93;;;2.00;;
25023;SDS011;13033;50.936;5.334;2023-09-19T10:55:56;10.98;;;2.40;;
25023;SDS011;13033;50.936;5.334;2023-09-19T10:58:28;11.43;;;2.50;;
25023;SDS011;13033;50.936;5.334;2023-09-19T11:00:59;5.03;;;1.90;;
25023;SDS011;13033;50.936;5.334;2023-09-19T11:03:35;9.27;;;2.30;;
25023;SDS011;13033;50.936;5.334;2023-09-19T11:30:30;6.60;;;1.40;;
25023;SDS011;13033;50.936;5.334;2023-09-19T11:36:08;9.85;;;2.05;;
25023;SDS011;13033;50.936;5.334;2023-09-19T11:43:51;7.35;;;1.88;;
25023;SDS011;13033;50.936;5.334;2023-09-19T11:46:21;7.00;;;1.45;;
25023;SDS011;13033;50.936;5.334;2023-09-19T11:48:50;4.78;;;1.33;;
25023;SDS011;13033;50.936;5.334;2023-09-19T11:51:20;5.00;;;1.52;;
25023;SDS011;13033;50.936;5.334;2023-09-19T11:53:48;5.40;;;1.30;;
25023;SDS011;13033;50.936;5.334;2023-09-19T11:56:15;4.75;;;1.52;;
25023;SDS011;13033;50.936;5.334;2023-09-19T11:58:45;8.57;;;1.67;;
25023;SDS011;13033;50.936;5.334;2023-09-19T12:01:14;5.43;;;1.30;;
25023;SDS011;13033;50.936;5.334;2023-09-19T12:03:46;7.78;;;1.50;;
25023;SDS011;13033;50.936;5.334;2023-09-19T12:06:15;7.30;;;1.38;;
25023;SDS011;13033;50.936;5.334;2023-09-19T12:08:42;10.60;;;1.58;;
25023;SDS011;13033;50.936;5.334;2023-09-19T12:11:12;2.80;;;1.00;;
25023;SDS011;13033;50.936;5.334;2023-09-19T12:13:46;5.17;;;1.20;;
25023;SDS011;13033;50.936;5.334;2023-09-19T12:18:50;6.63;;;1.10;;
25023;SDS011;13033;50.936;5.334;2023-09-19T12:24:06;4.43;;;1.50;;
25023;SDS011;13033;50.936;5.334;2023-09-19T12:26:41;3.40;;;0.90;;
25023;SDS011;13033;50.936;5.334;2023-09-19T12:29:12;7.03;;;1.33;;
25023;SDS011;13033;50.936;5.334;2023-09-19T12:39:46;3.63;;;1.08;;
25023;SDS011;13033;50.936;5.334;2023-09-19T12:42:18;4.90;;;1.15;;
25023;SDS011;13033;50.936;5.334;2023-09-19T12:44:50;6.25;;;1.10;;
25023;SDS011;13033;50.936;5.334;2023-09-19T12:47:21;5.53;;;1.35;;
25023;SDS011;13033;50.936;5.334;2023-09-19T12:50:06;2.60;;;0.90;;
25023;SDS011;13033;50.936;5.334;2023-09-19T12:52:39;6.05;;;1.10;;
25023;SDS011;13033;50.936;5.334;2023-09-19T12:55:05;5.93;;;1.20;;
25023;SDS011;13033;50.936;5.334;2023-09-19T12:57:36;2.05;;;0.80;;
25023;SDS011;13033;50.936;5.334;2023-09-19T13:00:02;3.92;;;1.10;;
25023;SDS011;13033;50.936;5.334;2023-09-19T13:02:31;2.67;;;0.98;;
25023;SDS011;13033;50.936;5.334;2023-09-19T13:04:57;4.70;;;1.08;;
25023;SDS011;13033;50.936;5.334;2023-09-19T13:10:14;5.07;;;1.30;;
25023;SDS011;13033;50.936;5.334;2023-09-19T13:12:41;7.90;;;1.52;;
25023;SDS011;13033;50.936;5.334;2023-09-19T13:15:14;3.42;;;1.05;;
25023;SDS011;13033;50.936;5.334;2023-09-19T13:17:48;4.97;;;1.13;;
25023;SDS011;13033;50.936;5.334;2023-09-19T13:20:24;3.40;;;0.82;;
25023;SDS011;13033;50.936;5.334;2023-09-19T13:22:54;6.63;;;1.35;;
25023;SDS011;13033;50.936;5.334;2023-09-19T13:25:24;8.32;;;1.23;;
25023;SDS011;13033;50.936;5.334;2023-09-19T13:27:53;5.60;;;1.20;;
25023;SDS011;13033;50.936;5.334;2023-09-19T13:30:21;4.32;;;1.17;;
25023;SDS011;13033;50.936;5.334;2023-09-19T13:32:50;12.00;;;1.50;;
25023;SDS011;13033;50.936;5.334;2023-09-19T13:35:17;4.82;;;1.10;;
25023;SDS011;13033;50.936;5.334;2023-09-19T13:37:43;3.97;;;1.20;;
25023;SDS011;13033;50.936;5.334;2023-09-19T13:40:14;5.25;;;1.67;;
25023;SDS011;13033;50.936;5.334;2023-09-19T13:42:40;4.78;;;1.45;;
25023;SDS011;13033;50.936;5.334;2023-09-19T13:45:07;3.10;;;0.98;;
25023;SDS011;13033;50.936;5.334;2023-09-19T13:47:36;5.97;;;1.27;;
25023;SDS011;13033;50.936;5.334;2023-09-19T13:50:03;7.75;;;1.38;;
25023;SDS011;13033;50.936;5.334;2023-09-19T13:52:33;7.85;;;1.42;;
25023;SDS011;13033;50.936;5.334;2023-09-19T13:54:59;6.07;;;1.00;;
25023;SDS011;13033;50.936;5.334;2023-09-19T13:57:31;6.72;;;1.33;;
25023;SDS011;13033;50.936;5.334;2023-09-19T13:59:58;7.10;;;1.10;;
25023;SDS011;13033;50.936;5.334;2023-09-19T14:02:24;5.65;;;1.17;;
25023;SDS011;13033;50.936;5.334;2023-09-19T14:04:50;6.50;;;1.40;;
25023;SDS011;13033;50.936;5.334;2023-09-19T14:07:20;6.30;;;1.45;;
25023;SDS011;13033;50.936;5.334;2023-09-19T14:09:46;4.85;;;1.20;;
25023;SDS011;13033;50.936;5.334;2023-09-19T14:12:13;6.18;;;1.23;;
25023;SDS011;13033;50.936;5.334;2023-09-19T14:14:39;3.40;;;0.80;;
25023;SDS011;13033;50.936;5.334;2023-09-19T14:17:04;5.07;;;1.30;;
25023;SDS011;13033;50.936;5.334;2023-09-19T14:19:32;5.43;;;1.23;;
25023;SDS011;13033;50.936;5.334;2023-09-19T14:21:58;5.93;;;1.30;;
25023;SDS011;13033;50.936;5.334;2023-09-19T14:24:25;3.22;;;1.33;;
25023;SDS011;13033;50.936;5.334;2023-09-19T14:26:50;8.18;;;1.63;;
25023;SDS011;13033;50.936;5.334;2023-09-19T14:29:16;2.90;;;0.95;;
25023;SDS011;13033;50.936;5.334;2023-09-19T14:31:42;5.93;;;1.50;;
25023;SDS011;13033;50.936;5.334;2023-09-19T14:34:08;3.38;;;1.08;;
25023;SDS011;13033;50.936;5.334;2023-09-19T14:36:37;5.63;;;1.13;;
25023;SDS011;13033;50.936;5.334;2023-09-19T14:39:06;6.28;;;1.23;;
25023;SDS011;13033;50.936;5.334;2023-09-19T14:41:33;5.60;;;0.95;;
25023;SDS011;13033;50.936;5.334;2023-09-19T14:43:59;7.55;;;1.45;;
25023;SDS011;13033;50.936;5.334;2023-09-19T14:46:24;4.90;;;1.05;;
25023;SDS011;13033;50.936;5.334;2023-09-19T14:48:53;5.30;;;1.20;;
25023;SDS011;13033;50.936;5.334;2023-09-19T14:51:19;2.92;;;1.13;;
25023;SDS011;13033;50.936;5.334;2023-09-19T14:53:45;5.60;;;1.30;;
25023;SDS011;13033;50.936;5.334;2023-09-19T14:56:12;6.32;;;1.23;;
25023;SDS011;13033;50.936;5.334;2023-09-19T14:58:40;4.60;;;1.00;;
25023;SDS011;13033;50.936;5.334;2023-09-19T15:01:10;5.53;;;1.50;;
25023;SDS011;13033;50.936;5.334;2023-09-19T15:03:37;4.65;;;1.35;;
25023;SDS011;13033;50.936;5.334;2023-09-19T15:06:07;4.35;;;1.50;;
25023;SDS011;13033;50.936;5.334;2023-09-19T15:08:37;4.45;;;1.48;;
25023;SDS011;13033;50.936;5.334;2023-09-19T15:11:06;6.85;;;1.50;;
25023;SDS011;13033;50.936;5.334;2023-09-19T15:13:33;6.65;;;1.30;;
25023;SDS011;13033;50.936;5.334;2023-09-19T15:16:03;4.93;;;1.20;;
25023;SDS011;13033;50.936;5.334;2023-09-19T15:18:39;3.92;;;1.10;;
25023;SDS011;13033;50.936;5.334;2023-09-19T15:21:07;4.00;;;1.08;;
25023;SDS011;13033;50.936;5.334;2023-09-19T15:23:34;4.68;;;1.20;;
25023;SDS011;13033;50.936;5.334;2023-09-19T15:26:01;5.25;;;1.42;;
25023;SDS011;13033;50.936;5.334;2023-09-19T15:28:28;4.15;;;1.30;;
25023;SDS011;13033;50.936;5.334;2023-09-19T15:31:00;4.30;;;1.20;;
25023;SDS011;13033;50.936;5.334;2023-09-19T15:33:27;4.72;;;1.25;;
25023;SDS011;13033;50.936;5.334;2023-09-19T15:36:03;8.10;;;1.52;;
25023;SDS011;13033;50.936;5.334;2023-09-19T15:41:33;4.97;;;1.30;;
25023;SDS011;13033;50.936;5.334;2023-09-19T15:44:00;5.78;;;1.30;;
25023;SDS011;13033;50.936;5.334;2023-09-19T15:46:28;5.03;;;1.80;;
25023;SDS011;13033;50.936;5.334;2023-09-19T15:49:01;5.22;;;1.55;;
25023;SDS011;13033;50.936;5.334;2023-09-19T15:51:27;4.22;;;1.40;;
25023;SDS011;13033;50.936;5.334;2023-09-19T15:53:53;6.28;;;1.52;;
25023;SDS011;13033;50.936;5.334;2023-09-19T15:56:21;6.07;;;1.48;;